sensor_id;sensor_type;location;lat;lon;timestamp;P1;durP1;ratioP1;P2;durP2;ratioP2
59512;SDS011;45330;51.634;5.562;2023-03-01T00:01:04;20.67;;;8.32;;
59512;SDS011;45330;51.634;5.562;2023-03-01T00:03:34;20.85;;;9.05;;
59512;SDS011;45330;51.634;5.562;2023-03-01T00:06:00;19.90;;;8.70;;
59512;SDS011;45330;51.634;5.562;2023-03-01T00:08:26;20.58;;;8.02;;
59512;SDS011;45330;51.634;5.562;2023-03-01T00:13:29;20.52;;;8.32;;
59512;SDS011;45330;51.634;5.562;2023-03-01T00:15:55;20.55;;;8.45;;
59512;SDS011;45330;51.634;5.562;2023-03-01T00:18:20;20.17;;;7.95;;
59512;SDS011;45330;51.634;5.562;2023-03-01T00:20:50;20.95;;;8.90;;
59512;SDS011;45330;51.634;5.562;2023-03-01T00:23:19;19.73;;;7.60;;
59512;SDS011;45330;51.634;5.562;2023-03-01T00:25:45;21.80;;;8.35;;
59512;SDS011;45330;51.634;5.562;2023-03-01T00:28:11;20.65;;;8.77;;
59512;SDS011;45330;51.634;5.562;2023-03-01T00:30:36;21.15;;;8.55;;
59512;SDS011;45330;51.634;5.562;2023-03-01T00:33:02;21.30;;;8.80;;
59512;SDS011;45330;51.634;5.562;2023-03-01T00:35:27;19.20;;;8.70;;
59512;SDS011;45330;51.634;5.562;2023-03-01T00:37:52;21.00;;;8.60;;
59512;SDS011;45330;51.634;5.562;2023-03-01T00:40:18;20.63;;;8.60;;
59512;SDS011;45330;51.634;5.562;2023-03-01T00:42:43;22.05;;;8.23;;
59512;SDS011;45330;51.634;5.562;2023-03-01T00:45:09;19.75;;;8.10;;
59512;SDS011;45330;51.634;5.562;2023-03-01T00:47:34;19.38;;;8.38;;
59512;SDS011;45330;51.634;5.562;2023-03-01T00:50:00;21.25;;;9.05;;
59512;SDS011;45330;51.634;5.562;2023-03-01T00:52:25;20.35;;;7.97;;
59512;SDS011;45330;51.634;5.562;2023-03-01T00:54:51;20.15;;;8.55;;
59512;SDS011;45330;51.634;5.562;2023-03-01T00:57:17;20.73;;;8.15;;
59512;SDS011;45330;51.634;5.562;2023-03-01T00:59:43;20.70;;;8.40;;
59512;SDS011;45330;51.634;5.562;2023-03-01T01:02:08;20.70;;;8.02;;
59512;SDS011;45330;51.634;5.562;2023-03-01T01:04:33;19.65;;;8.27;;
59512;SDS011;45330;51.634;5.562;2023-03-01T01:06:59;19.85;;;8.15;;
59512;SDS011;45330;51.634;5.562;2023-03-01T01:09:24;21.10;;;8.55;;
59512;SDS011;45330;51.634;5.562;2023-03-01T01:11:50;19.90;;;8.20;;
59512;SDS011;45330;51.634;5.562;2023-03-01T01:14:16;18.58;;;8.00;;
59512;SDS011;45330;51.634;5.562;2023-03-01T01:16:42;20.25;;;7.68;;
59512;SDS011;45330;51.634;5.562;2023-03-01T01:19:09;20.05;;;7.80;;
59512;SDS011;45330;51.634;5.562;2023-03-01T01:21:35;18.08;;;7.25;;
59512;SDS011;45330;51.634;5.562;2023-03-01T01:24:02;20.00;;;7.97;;
59512;SDS011;45330;51.634;5.562;2023-03-01T01:26:30;20.00;;;8.07;;
59512;SDS011;45330;51.634;5.562;2023-03-01T01:28:57;20.27;;;8.40;;
59512;SDS011;45330;51.634;5.562;2023-03-01T01:31:23;19.15;;;8.18;;
59512;SDS011;45330;51.634;5.562;2023-03-01T01:33:49;20.13;;;8.35;;
59512;SDS011;45330;51.634;5.562;2023-03-01T01:36:15;18.92;;;8.00;;
59512;SDS011;45330;51.634;5.562;2023-03-01T01:38:41;18.67;;;8.05;;
59512;SDS011;45330;51.634;5.562;2023-03-01T01:41:07;19.52;;;8.05;;
59512;SDS011;45330;51.634;5.562;2023-03-01T01:43:37;20.52;;;8.52;;
59512;SDS011;45330;51.634;5.562;2023-03-01T01:46:15;21.00;;;8.32;;
59512;SDS011;45330;51.634;5.562;2023-03-01T01:48:54;20.65;;;8.50;;
59512;SDS011;45330;51.634;5.562;2023-03-01T01:51:25;19.77;;;7.75;;
59512;SDS011;45330;51.634;5.562;2023-03-01T01:54:03;20.20;;;8.50;;
59512;SDS011;45330;51.634;5.562;2023-03-01T01:56:33;20.88;;;8.57;;
59512;SDS011;45330;51.634;5.562;2023-03-01T01:59:00;20.27;;;7.80;;
59512;SDS011;45330;51.634;5.562;2023-03-01T02:01:27;18.50;;;7.63;;
59512;SDS011;45330;51.634;5.562;2023-03-01T02:03:52;18.98;;;8.10;;
59512;SDS011;45330;51.634;5.562;2023-03-01T02:08:44;18.98;;;7.80;;
59512;SDS011;45330;51.634;5.562;2023-03-01T02:11:11;18.83;;;7.18;;
59512;SDS011;45330;51.634;5.562;2023-03-01T02:13:39;18.50;;;7.93;;
59512;SDS011;45330;51.634;5.562;2023-03-01T02:16:08;19.60;;;7.40;;
59512;SDS011;45330;51.634;5.562;2023-03-01T02:18:35;19.98;;;7.63;;
59512;SDS011;45330;51.634;5.562;2023-03-01T02:21:05;19.27;;;7.25;;
59512;SDS011;45330;51.634;5.562;2023-03-01T02:24:01;18.25;;;7.18;;
59512;SDS011;45330;51.634;5.562;2023-03-01T02:26:41;19.70;;;7.63;;
59512;SDS011;45330;51.634;5.562;2023-03-01T02:29:11;20.00;;;7.85;;
59512;SDS011;45330;51.634;5.562;2023-03-01T02:31:37;19.83;;;7.50;;
59512;SDS011;45330;51.634;5.562;2023-03-01T02:36:37;19.00;;;7.80;;
59512;SDS011;45330;51.634;5.562;2023-03-01T02:39:05;19.77;;;7.63;;
59512;SDS011;45330;51.634;5.562;2023-03-01T02:41:39;20.33;;;7.30;;
59512;SDS011;45330;51.634;5.562;2023-03-01T02:44:06;19.20;;;7.28;;
59512;SDS011;45330;51.634;5.562;2023-03-01T02:46:31;21.52;;;7.75;;
59512;SDS011;45330;51.634;5.562;2023-03-01T02:48:57;17.40;;;6.63;;
59512;SDS011;45330;51.634;5.562;2023-03-01T02:56:52;17.45;;;7.10;;
59512;SDS011;45330;51.634;5.562;2023-03-01T02:59:19;19.15;;;7.22;;
59512;SDS011;45330;51.634;5.562;2023-03-01T03:01:47;18.15;;;7.43;;
59512;SDS011;45330;51.634;5.562;2023-03-01T03:04:14;18.55;;;6.80;;
59512;SDS011;45330;51.634;5.562;2023-03-01T03:06:46;17.25;;;6.90;;
59512;SDS011;45330;51.634;5.562;2023-03-01T03:09:12;17.42;;;6.72;;
59512;SDS011;45330;51.634;5.562;2023-03-01T03:11:38;18.98;;;7.10;;
59512;SDS011;45330;51.634;5.562;2023-03-01T03:14:05;18.17;;;6.82;;
59512;SDS011;45330;51.634;5.562;2023-03-01T03:16:47;17.92;;;6.75;;
59512;SDS011;45330;51.634;5.562;2023-03-01T03:19:14;18.70;;;7.05;;
59512;SDS011;45330;51.634;5.562;2023-03-01T03:21:41;17.48;;;6.53;;
59512;SDS011;45330;51.634;5.562;2023-03-01T03:24:07;19.15;;;6.68;;
59512;SDS011;45330;51.634;5.562;2023-03-01T03:26:32;17.48;;;6.60;;
59512;SDS011;45330;51.634;5.562;2023-03-01T03:28:58;17.50;;;6.57;;
59512;SDS011;45330;51.634;5.562;2023-03-01T03:31:23;16.70;;;6.65;;
59512;SDS011;45330;51.634;5.562;2023-03-01T03:33:49;17.02;;;6.43;;
59512;SDS011;45330;51.634;5.562;2023-03-01T03:36:18;16.75;;;6.80;;
59512;SDS011;45330;51.634;5.562;2023-03-01T03:41:11;18.55;;;6.50;;
59512;SDS011;45330;51.634;5.562;2023-03-01T03:43:38;17.17;;;6.22;;
59512;SDS011;45330;51.634;5.562;2023-03-01T03:46:05;18.73;;;6.53;;
59512;SDS011;45330;51.634;5.562;2023-03-01T03:48:50;21.13;;;7.20;;
59512;SDS011;45330;51.634;5.562;2023-03-01T03:51:16;19.13;;;7.30;;
59512;SDS011;45330;51.634;5.562;2023-03-01T03:53:43;16.88;;;6.63;;
59512;SDS011;45330;51.634;5.562;2023-03-01T03:56:09;20.23;;;7.10;;
59512;SDS011;45330;51.634;5.562;2023-03-01T03:58:35;18.77;;;7.28;;
59512;SDS011;45330;51.634;5.562;2023-03-01T04:01:00;18.95;;;7.15;;
59512;SDS011;45330;51.634;5.562;2023-03-01T04:03:26;18.15;;;7.25;;
59512;SDS011;45330;51.634;5.562;2023-03-01T04:05:53;17.95;;;6.63;;
59512;SDS011;45330;51.634;5.562;2023-03-01T04:08:19;18.77;;;7.65;;
59512;SDS011;45330;51.634;5.562;2023-03-01T04:10:47;18.52;;;6.90;;
59512;SDS011;45330;51.634;5.562;2023-03-01T04:13:15;18.50;;;7.70;;
59512;SDS011;45330;51.634;5.562;2023-03-01T04:15:44;18.67;;;7.20;;
59512;SDS011;45330;51.634;5.562;2023-03-01T04:18:13;18.67;;;6.95;;
59512;SDS011;45330;51.634;5.562;2023-03-01T04:20:40;17.63;;;7.38;;
59512;SDS011;45330;51.634;5.562;2023-03-01T04:23:07;19.90;;;7.22;;
59512;SDS011;45330;51.634;5.562;2023-03-01T04:25:54;17.88;;;7.30;;
59512;SDS011;45330;51.634;5.562;2023-03-01T04:28:25;18.48;;;7.43;;
59512;SDS011;45330;51.634;5.562;2023-03-01T04:30:54;22.02;;;7.97;;
59512;SDS011;45330;51.634;5.562;2023-03-01T04:33:20;18.75;;;7.40;;
59512;SDS011;45330;51.634;5.562;2023-03-01T04:35:46;19.42;;;7.78;;
59512;SDS011;45330;51.634;5.562;2023-03-01T04:38:14;18.90;;;7.72;;
59512;SDS011;45330;51.634;5.562;2023-03-01T04:40:40;20.45;;;7.53;;
59512;SDS011;45330;51.634;5.562;2023-03-01T04:43:08;22.48;;;8.10;;
59512;SDS011;45330;51.634;5.562;2023-03-01T04:45:34;19.92;;;7.93;;
59512;SDS011;45330;51.634;5.562;2023-03-01T04:48:00;19.98;;;8.25;;
59512;SDS011;45330;51.634;5.562;2023-03-01T04:50:25;21.67;;;8.48;;
59512;SDS011;45330;51.634;5.562;2023-03-01T04:52:51;21.02;;;9.00;;
59512;SDS011;45330;51.634;5.562;2023-03-01T04:55:17;18.73;;;7.53;;
59512;SDS011;45330;51.634;5.562;2023-03-01T04:57:42;17.77;;;7.15;;
59512;SDS011;45330;51.634;5.562;2023-03-01T05:00:10;20.10;;;7.82;;
59512;SDS011;45330;51.634;5.562;2023-03-01T05:02:52;20.75;;;7.75;;
59512;SDS011;45330;51.634;5.562;2023-03-01T05:05:26;20.13;;;8.05;;
59512;SDS011;45330;51.634;5.562;2023-03-01T05:07:53;19.13;;;7.72;;
59512;SDS011;45330;51.634;5.562;2023-03-01T05:10:20;20.80;;;7.80;;
59512;SDS011;45330;51.634;5.562;2023-03-01T05:12:46;18.90;;;7.60;;
59512;SDS011;45330;51.634;5.562;2023-03-01T05:15:12;20.05;;;7.35;;
59512;SDS011;45330;51.634;5.562;2023-03-01T05:17:37;19.40;;;7.45;;
59512;SDS011;45330;51.634;5.562;2023-03-01T05:20:02;19.45;;;8.25;;
59512;SDS011;45330;51.634;5.562;2023-03-01T05:22:33;18.70;;;7.63;;
59512;SDS011;45330;51.634;5.562;2023-03-01T05:24:58;19.00;;;8.00;;
59512;SDS011;45330;51.634;5.562;2023-03-01T05:27:23;19.33;;;7.45;;
59512;SDS011;45330;51.634;5.562;2023-03-01T05:29:49;19.23;;;7.53;;
59512;SDS011;45330;51.634;5.562;2023-03-01T05:32:14;18.77;;;7.32;;
59512;SDS011;45330;51.634;5.562;2023-03-01T05:34:40;20.50;;;8.52;;
59512;SDS011;45330;51.634;5.562;2023-03-01T05:37:06;20.02;;;8.10;;
59512;SDS011;45330;51.634;5.562;2023-03-01T05:39:32;23.15;;;8.63;;
59512;SDS011;45330;51.634;5.562;2023-03-01T05:41:59;20.38;;;8.50;;
59512;SDS011;45330;51.634;5.562;2023-03-01T05:44:26;20.90;;;8.48;;
59512;SDS011;45330;51.634;5.562;2023-03-01T05:46:53;21.17;;;8.32;;
59512;SDS011;45330;51.634;5.562;2023-03-01T05:49:20;19.45;;;8.38;;
59512;SDS011;45330;51.634;5.562;2023-03-01T05:51:49;20.50;;;8.40;;
59512;SDS011;45330;51.634;5.562;2023-03-01T05:54:16;21.38;;;8.30;;
59512;SDS011;45330;51.634;5.562;2023-03-01T05:56:42;20.88;;;8.23;;
59512;SDS011;45330;51.634;5.562;2023-03-01T05:59:08;20.30;;;8.60;;
59512;SDS011;45330;51.634;5.562;2023-03-01T06:01:34;20.98;;;8.35;;
59512;SDS011;45330;51.634;5.562;2023-03-01T06:04:00;20.33;;;8.13;;
59512;SDS011;45330;51.634;5.562;2023-03-01T06:06:26;21.73;;;8.48;;
59512;SDS011;45330;51.634;5.562;2023-03-01T06:08:51;21.38;;;8.27;;
59512;SDS011;45330;51.634;5.562;2023-03-01T06:11:17;20.02;;;8.25;;
59512;SDS011;45330;51.634;5.562;2023-03-01T06:13:43;21.60;;;9.10;;
59512;SDS011;45330;51.634;5.562;2023-03-01T06:16:09;21.40;;;8.45;;
59512;SDS011;45330;51.634;5.562;2023-03-01T06:18:35;20.65;;;8.70;;
59512;SDS011;45330;51.634;5.562;2023-03-01T06:21:02;20.52;;;8.30;;
59512;SDS011;45330;51.634;5.562;2023-03-01T06:23:27;21.83;;;8.82;;
59512;SDS011;45330;51.634;5.562;2023-03-01T06:25:53;21.25;;;9.30;;
59512;SDS011;45330;51.634;5.562;2023-03-01T06:28:18;21.52;;;9.30;;
59512;SDS011;45330;51.634;5.562;2023-03-01T06:30:44;22.02;;;9.85;;
59512;SDS011;45330;51.634;5.562;2023-03-01T06:33:09;22.90;;;8.95;;
59512;SDS011;45330;51.634;5.562;2023-03-01T06:35:35;22.13;;;9.02;;
59512;SDS011;45330;51.634;5.562;2023-03-01T06:38:01;20.67;;;9.35;;
59512;SDS011;45330;51.634;5.562;2023-03-01T06:40:28;21.75;;;9.57;;
59512;SDS011;45330;51.634;5.562;2023-03-01T06:42:54;22.38;;;9.23;;
59512;SDS011;45330;51.634;5.562;2023-03-01T06:45:20;20.88;;;9.57;;
59512;SDS011;45330;51.634;5.562;2023-03-01T06:47:46;22.15;;;9.00;;
59512;SDS011;45330;51.634;5.562;2023-03-01T06:50:12;20.15;;;8.75;;
59512;SDS011;45330;51.634;5.562;2023-03-01T06:52:38;21.00;;;8.75;;
59512;SDS011;45330;51.634;5.562;2023-03-01T06:55:04;21.30;;;9.57;;
59512;SDS011;45330;51.634;5.562;2023-03-01T06:57:30;21.25;;;8.88;;
59512;SDS011;45330;51.634;5.562;2023-03-01T06:59:55;21.85;;;8.90;;
59512;SDS011;45330;51.634;5.562;2023-03-01T07:02:21;19.90;;;8.20;;
59512;SDS011;45330;51.634;5.562;2023-03-01T07:04:47;20.00;;;8.30;;
59512;SDS011;45330;51.634;5.562;2023-03-01T07:07:14;21.50;;;8.50;;
59512;SDS011;45330;51.634;5.562;2023-03-01T07:09:39;20.52;;;8.73;;
59512;SDS011;45330;51.634;5.562;2023-03-01T07:12:05;20.77;;;8.30;;
59512;SDS011;45330;51.634;5.562;2023-03-01T07:14:30;21.17;;;8.45;;
59512;SDS011;45330;51.634;5.562;2023-03-01T07:16:55;22.05;;;9.27;;
59512;SDS011;45330;51.634;5.562;2023-03-01T07:19:21;20.83;;;9.43;;
59512;SDS011;45330;51.634;5.562;2023-03-01T07:21:47;22.42;;;9.60;;
59512;SDS011;45330;51.634;5.562;2023-03-01T07:24:13;21.55;;;9.18;;
59512;SDS011;45330;51.634;5.562;2023-03-01T07:26:38;21.00;;;8.70;;
59512;SDS011;45330;51.634;5.562;2023-03-01T07:29:05;23.65;;;8.75;;
59512;SDS011;45330;51.634;5.562;2023-03-01T07:31:31;22.10;;;8.95;;
59512;SDS011;45330;51.634;5.562;2023-03-01T07:33:57;21.05;;;9.30;;
59512;SDS011;45330;51.634;5.562;2023-03-01T07:36:22;21.05;;;9.10;;
59512;SDS011;45330;51.634;5.562;2023-03-01T07:38:48;20.88;;;9.00;;
59512;SDS011;45330;51.634;5.562;2023-03-01T07:41:14;22.30;;;8.55;;
59512;SDS011;45330;51.634;5.562;2023-03-01T07:43:39;20.88;;;8.20;;
59512;SDS011;45330;51.634;5.562;2023-03-01T07:46:05;19.90;;;8.95;;
59512;SDS011;45330;51.634;5.562;2023-03-01T07:48:32;21.52;;;9.05;;
59512;SDS011;45330;51.634;5.562;2023-03-01T07:50:58;24.80;;;9.32;;
59512;SDS011;45330;51.634;5.562;2023-03-01T07:53:27;22.52;;;9.65;;
59512;SDS011;45330;51.634;5.562;2023-03-01T07:56:03;21.67;;;9.13;;
59512;SDS011;45330;51.634;5.562;2023-03-01T07:58:29;21.15;;;8.80;;
59512;SDS011;45330;51.634;5.562;2023-03-01T08:00:54;21.92;;;8.25;;
59512;SDS011;45330;51.634;5.562;2023-03-01T08:03:20;21.08;;;8.52;;
59512;SDS011;45330;51.634;5.562;2023-03-01T08:05:45;22.95;;;8.55;;
59512;SDS011;45330;51.634;5.562;2023-03-01T08:08:10;20.77;;;8.40;;
59512;SDS011;45330;51.634;5.562;2023-03-01T08:10:36;21.67;;;8.55;;
59512;SDS011;45330;51.634;5.562;2023-03-01T08:13:01;20.27;;;8.70;;
59512;SDS011;45330;51.634;5.562;2023-03-01T08:15:27;22.27;;;8.13;;
59512;SDS011;45330;51.634;5.562;2023-03-01T08:17:52;23.10;;;8.82;;
59512;SDS011;45330;51.634;5.562;2023-03-01T08:20:18;21.98;;;7.80;;
59512;SDS011;45330;51.634;5.562;2023-03-01T08:22:43;20.20;;;8.20;;
59512;SDS011;45330;51.634;5.562;2023-03-01T08:25:09;19.95;;;7.55;;
59512;SDS011;45330;51.634;5.562;2023-03-01T08:27:34;17.80;;;7.72;;
59512;SDS011;45330;51.634;5.562;2023-03-01T08:30:00;19.67;;;8.10;;
59512;SDS011;45330;51.634;5.562;2023-03-01T08:32:25;19.92;;;8.65;;
59512;SDS011;45330;51.634;5.562;2023-03-01T08:34:51;20.38;;;7.85;;
59512;SDS011;45330;51.634;5.562;2023-03-01T08:37:16;21.17;;;8.52;;
59512;SDS011;45330;51.634;5.562;2023-03-01T08:39:41;20.23;;;7.88;;
59512;SDS011;45330;51.634;5.562;2023-03-01T08:42:07;20.65;;;8.05;;
59512;SDS011;45330;51.634;5.562;2023-03-01T08:44:32;18.73;;;7.43;;
59512;SDS011;45330;51.634;5.562;2023-03-01T08:46:58;22.23;;;8.48;;
59512;SDS011;45330;51.634;5.562;2023-03-01T08:49:24;19.70;;;8.02;;
59512;SDS011;45330;51.634;5.562;2023-03-01T08:51:50;19.83;;;8.20;;
59512;SDS011;45330;51.634;5.562;2023-03-01T08:54:17;20.70;;;8.43;;
59512;SDS011;45330;51.634;5.562;2023-03-01T08:56:45;21.30;;;8.00;;
59512;SDS011;45330;51.634;5.562;2023-03-01T08:59:11;19.38;;;8.95;;
59512;SDS011;45330;51.634;5.562;2023-03-01T09:01:37;20.23;;;7.65;;
59512;SDS011;45330;51.634;5.562;2023-03-01T09:04:03;19.35;;;7.70;;
59512;SDS011;45330;51.634;5.562;2023-03-01T09:06:32;20.58;;;8.40;;
59512;SDS011;45330;51.634;5.562;2023-03-01T09:08:59;19.33;;;8.00;;
59512;SDS011;45330;51.634;5.562;2023-03-01T09:11:24;19.55;;;7.88;;
59512;SDS011;45330;51.634;5.562;2023-03-01T09:13:50;20.40;;;7.78;;
59512;SDS011;45330;51.634;5.562;2023-03-01T09:16:16;19.33;;;7.63;;
59512;SDS011;45330;51.634;5.562;2023-03-01T09:18:44;18.85;;;7.85;;
59512;SDS011;45330;51.634;5.562;2023-03-01T09:21:11;15.60;;;6.68;;
59512;SDS011;45330;51.634;5.562;2023-03-01T09:23:42;17.42;;;7.20;;
59512;SDS011;45330;51.634;5.562;2023-03-01T09:26:10;18.40;;;6.93;;
59512;SDS011;45330;51.634;5.562;2023-03-01T09:28:41;19.20;;;7.50;;
59512;SDS011;45330;51.634;5.562;2023-03-01T09:31:09;20.00;;;7.18;;
59512;SDS011;45330;51.634;5.562;2023-03-01T09:33:34;19.08;;;6.57;;
59512;SDS011;45330;51.634;5.562;2023-03-01T09:36:00;18.67;;;7.82;;
59512;SDS011;45330;51.634;5.562;2023-03-01T09:38:27;17.95;;;7.40;;
59512;SDS011;45330;51.634;5.562;2023-03-01T09:40:53;16.85;;;6.28;;
59512;SDS011;45330;51.634;5.562;2023-03-01T09:43:35;17.65;;;6.82;;
59512;SDS011;45330;51.634;5.562;2023-03-01T09:46:10;17.02;;;6.78;;
59512;SDS011;45330;51.634;5.562;2023-03-01T09:48:48;19.75;;;7.00;;
59512;SDS011;45330;51.634;5.562;2023-03-01T09:51:27;18.67;;;7.10;;
59512;SDS011;45330;51.634;5.562;2023-03-01T09:53:56;17.88;;;7.03;;
59512;SDS011;45330;51.634;5.562;2023-03-01T09:56:29;18.15;;;7.38;;
59512;SDS011;45330;51.634;5.562;2023-03-01T09:59:04;17.92;;;6.13;;
59512;SDS011;45330;51.634;5.562;2023-03-01T10:02:16;16.48;;;7.10;;
59512;SDS011;45330;51.634;5.562;2023-03-01T10:10:06;16.88;;;6.45;;
59512;SDS011;45330;51.634;5.562;2023-03-01T10:12:35;16.40;;;6.53;;
59512;SDS011;45330;51.634;5.562;2023-03-01T10:17:47;17.23;;;6.68;;
59512;SDS011;45330;51.634;5.562;2023-03-01T10:20:21;16.83;;;7.03;;
59512;SDS011;45330;51.634;5.562;2023-03-01T10:22:48;16.50;;;6.60;;
59512;SDS011;45330;51.634;5.562;2023-03-01T10:25:25;16.73;;;6.72;;
59512;SDS011;45330;51.634;5.562;2023-03-01T10:27:54;17.92;;;6.40;;
59512;SDS011;45330;51.634;5.562;2023-03-01T10:30:37;19.40;;;7.85;;
59512;SDS011;45330;51.634;5.562;2023-03-01T10:33:08;19.38;;;7.30;;
59512;SDS011;45330;51.634;5.562;2023-03-01T10:35:42;16.95;;;7.05;;
59512;SDS011;45330;51.634;5.562;2023-03-01T10:40:35;17.30;;;6.82;;
59512;SDS011;45330;51.634;5.562;2023-03-01T10:43:02;18.23;;;7.15;;
59512;SDS011;45330;51.634;5.562;2023-03-01T10:50:35;16.05;;;6.25;;
59512;SDS011;45330;51.634;5.562;2023-03-01T10:53:03;16.90;;;6.43;;
59512;SDS011;45330;51.634;5.562;2023-03-01T10:55:38;18.02;;;6.80;;
59512;SDS011;45330;51.634;5.562;2023-03-01T11:03:37;18.42;;;6.97;;
59512;SDS011;45330;51.634;5.562;2023-03-01T11:08:42;16.40;;;6.50;;
59512;SDS011;45330;51.634;5.562;2023-03-01T11:13:34;18.20;;;7.05;;
59512;SDS011;45330;51.634;5.562;2023-03-01T11:16:05;18.55;;;6.82;;
59512;SDS011;45330;51.634;5.562;2023-03-01T11:18:34;18.85;;;6.10;;
59512;SDS011;45330;51.634;5.562;2023-03-01T11:21:00;15.15;;;6.15;;
59512;SDS011;45330;51.634;5.562;2023-03-01T11:23:28;17.58;;;7.63;;
59512;SDS011;45330;51.634;5.562;2023-03-01T11:25:56;16.33;;;5.95;;
59512;SDS011;45330;51.634;5.562;2023-03-01T11:28:27;17.40;;;6.63;;
59512;SDS011;45330;51.634;5.562;2023-03-01T11:31:04;19.73;;;7.13;;
59512;SDS011;45330;51.634;5.562;2023-03-01T11:42:20;15.57;;;6.22;;
59512;SDS011;45330;51.634;5.562;2023-03-01T11:44:54;17.77;;;7.05;;
59512;SDS011;45330;51.634;5.562;2023-03-01T11:47:27;15.13;;;6.50;;
59512;SDS011;45330;51.634;5.562;2023-03-01T11:55:57;16.95;;;6.47;;
59512;SDS011;45330;51.634;5.562;2023-03-01T12:04:26;17.05;;;7.32;;
59512;SDS011;45330;51.634;5.562;2023-03-01T12:17:57;17.70;;;7.07;;
59512;SDS011;45330;51.634;5.562;2023-03-01T12:48:06;16.45;;;7.15;;
59512;SDS011;45330;51.634;5.562;2023-03-01T12:50:52;17.67;;;6.63;;
59512;SDS011;45330;51.634;5.562;2023-03-01T12:55:47;18.73;;;7.25;;
59512;SDS011;45330;51.634;5.562;2023-03-01T13:01:05;16.77;;;6.07;;
59512;SDS011;45330;51.634;5.562;2023-03-01T13:11:28;20.52;;;6.80;;
59512;SDS011;45330;51.634;5.562;2023-03-01T13:16:51;18.50;;;7.80;;
59512;SDS011;45330;51.634;5.562;2023-03-01T13:21:45;15.90;;;6.13;;
59512;SDS011;45330;51.634;5.562;2023-03-01T13:27:09;17.75;;;6.80;;
59512;SDS011;45330;51.634;5.562;2023-03-01T13:29:52;17.33;;;7.13;;
59512;SDS011;45330;51.634;5.562;2023-03-01T13:32:25;16.92;;;7.03;;
59512;SDS011;45330;51.634;5.562;2023-03-01T13:35:02;15.98;;;6.60;;
59512;SDS011;45330;51.634;5.562;2023-03-01T13:37:36;16.65;;;6.45;;
59512;SDS011;45330;51.634;5.562;2023-03-01T13:42:47;17.05;;;6.85;;
59512;SDS011;45330;51.634;5.562;2023-03-01T13:47:45;18.30;;;7.53;;
59512;SDS011;45330;51.634;5.562;2023-03-01T13:50:19;18.27;;;6.90;;
59512;SDS011;45330;51.634;5.562;2023-03-01T13:52:48;15.85;;;6.60;;
59512;SDS011;45330;51.634;5.562;2023-03-01T13:58:00;18.55;;;7.07;;
59512;SDS011;45330;51.634;5.562;2023-03-01T14:00:38;15.43;;;6.35;;
59512;SDS011;45330;51.634;5.562;2023-03-01T14:03:12;20.38;;;7.50;;
59512;SDS011;45330;51.634;5.562;2023-03-01T14:05:44;18.88;;;7.25;;
59512;SDS011;45330;51.634;5.562;2023-03-01T14:08:34;17.92;;;6.68;;
59512;SDS011;45330;51.634;5.562;2023-03-01T14:13:46;19.08;;;7.00;;
59512;SDS011;45330;51.634;5.562;2023-03-01T14:19:33;19.10;;;6.68;;
59512;SDS011;45330;51.634;5.562;2023-03-01T14:27:46;15.68;;;6.40;;
59512;SDS011;45330;51.634;5.562;2023-03-01T14:30:21;19.55;;;7.55;;
59512;SDS011;45330;51.634;5.562;2023-03-01T14:32:59;18.58;;;7.45;;
59512;SDS011;45330;51.634;5.562;2023-03-01T14:35:33;18.27;;;7.30;;
59512;SDS011;45330;51.634;5.562;2023-03-01T14:40:27;21.00;;;8.48;;
59512;SDS011;45330;51.634;5.562;2023-03-01T14:42:55;18.33;;;7.50;;
59512;SDS011;45330;51.634;5.562;2023-03-01T14:45:22;18.52;;;7.40;;
59512;SDS011;45330;51.634;5.562;2023-03-01T14:47:50;18.23;;;7.47;;
59512;SDS011;45330;51.634;5.562;2023-03-01T14:50:20;18.25;;;6.80;;
59512;SDS011;45330;51.634;5.562;2023-03-01T14:52:50;17.77;;;7.15;;
59512;SDS011;45330;51.634;5.562;2023-03-01T14:55:20;19.05;;;7.60;;
59512;SDS011;45330;51.634;5.562;2023-03-01T14:57:50;17.38;;;7.22;;
59512;SDS011;45330;51.634;5.562;2023-03-01T15:00:21;18.55;;;7.65;;
59512;SDS011;45330;51.634;5.562;2023-03-01T15:02:50;18.52;;;7.50;;
59512;SDS011;45330;51.634;5.562;2023-03-01T15:05:18;17.38;;;7.68;;
59512;SDS011;45330;51.634;5.562;2023-03-01T15:08:05;17.67;;;7.70;;
59512;SDS011;45330;51.634;5.562;2023-03-01T15:10:32;18.92;;;7.72;;
59512;SDS011;45330;51.634;5.562;2023-03-01T15:13:10;19.63;;;8.07;;
59512;SDS011;45330;51.634;5.562;2023-03-01T15:18:55;18.60;;;7.68;;
59512;SDS011;45330;51.634;5.562;2023-03-01T15:21:24;19.33;;;7.43;;
59512;SDS011;45330;51.634;5.562;2023-03-01T15:24:02;19.73;;;8.63;;
59512;SDS011;45330;51.634;5.562;2023-03-01T15:26:52;18.63;;;8.02;;
59512;SDS011;45330;51.634;5.562;2023-03-01T15:29:26;16.88;;;7.18;;
59512;SDS011;45330;51.634;5.562;2023-03-01T15:34:30;18.30;;;7.65;;
59512;SDS011;45330;51.634;5.562;2023-03-01T15:37:03;19.48;;;7.47;;
59512;SDS011;45330;51.634;5.562;2023-03-01T15:39:53;18.10;;;7.60;;
59512;SDS011;45330;51.634;5.562;2023-03-01T15:45:36;19.10;;;8.23;;
59512;SDS011;45330;51.634;5.562;2023-03-01T15:47:48;19.73;;;8.30;;
59512;SDS011;45330;51.634;5.562;2023-03-01T15:50:29;18.60;;;7.38;;
59512;SDS011;45330;51.634;5.562;2023-03-01T15:53:00;17.70;;;7.75;;
59512;SDS011;45330;51.634;5.562;2023-03-01T15:55:30;19.63;;;7.75;;
59512;SDS011;45330;51.634;5.562;2023-03-01T15:58:03;18.67;;;7.85;;
59512;SDS011;45330;51.634;5.562;2023-03-01T16:00:32;18.77;;;7.72;;
59512;SDS011;45330;51.634;5.562;2023-03-01T16:02:57;16.67;;;6.72;;
59512;SDS011;45330;51.634;5.562;2023-03-01T16:05:27;17.17;;;6.97;;
59512;SDS011;45330;51.634;5.562;2023-03-01T16:07:55;17.95;;;7.53;;
59512;SDS011;45330;51.634;5.562;2023-03-01T16:10:21;19.80;;;7.18;;
59512;SDS011;45330;51.634;5.562;2023-03-01T16:12:47;18.42;;;8.02;;
59512;SDS011;45330;51.634;5.562;2023-03-01T16:15:33;17.48;;;6.80;;
59512;SDS011;45330;51.634;5.562;2023-03-01T16:18:01;16.48;;;6.75;;
59512;SDS011;45330;51.634;5.562;2023-03-01T16:20:27;19.20;;;7.53;;
59512;SDS011;45330;51.634;5.562;2023-03-01T16:22:54;16.50;;;6.68;;
59512;SDS011;45330;51.634;5.562;2023-03-01T16:25:22;17.63;;;6.80;;
59512;SDS011;45330;51.634;5.562;2023-03-01T16:27:49;17.55;;;6.97;;
59512;SDS011;45330;51.634;5.562;2023-03-01T16:30:16;18.02;;;7.18;;
59512;SDS011;45330;51.634;5.562;2023-03-01T16:32:43;17.55;;;6.70;;
59512;SDS011;45330;51.634;5.562;2023-03-01T16:35:11;17.45;;;6.57;;
59512;SDS011;45330;51.634;5.562;2023-03-01T16:37:37;16.00;;;6.25;;
59512;SDS011;45330;51.634;5.562;2023-03-01T16:40:04;17.48;;;6.63;;
59512;SDS011;45330;51.634;5.562;2023-03-01T16:42:35;18.98;;;7.88;;
59512;SDS011;45330;51.634;5.562;2023-03-01T16:45:01;20.10;;;6.55;;
59512;SDS011;45330;51.634;5.562;2023-03-01T16:47:27;17.77;;;5.97;;
59512;SDS011;45330;51.634;5.562;2023-03-01T16:49:53;17.90;;;6.25;;
59512;SDS011;45330;51.634;5.562;2023-03-01T16:52:19;17.10;;;6.72;;
59512;SDS011;45330;51.634;5.562;2023-03-01T16:54:46;18.83;;;7.60;;
59512;SDS011;45330;51.634;5.562;2023-03-01T16:57:11;17.98;;;6.95;;
59512;SDS011;45330;51.634;5.562;2023-03-01T16:59:37;17.88;;;6.80;;
59512;SDS011;45330;51.634;5.562;2023-03-01T17:02:03;18.73;;;7.25;;
59512;SDS011;45330;51.634;5.562;2023-03-01T17:04:29;18.88;;;6.78;;
59512;SDS011;45330;51.634;5.562;2023-03-01T17:06:54;19.35;;;6.78;;
59512;SDS011;45330;51.634;5.562;2023-03-01T17:09:20;17.35;;;6.68;;
59512;SDS011;45330;51.634;5.562;2023-03-01T17:11:47;17.75;;;6.80;;
59512;SDS011;45330;51.634;5.562;2023-03-01T17:14:13;17.95;;;6.35;;